CPX325 Details

Departure: March Air Reserve Base (KRIV)
Arrival: Fort Worth Alliance Airport (KAFW)
Route: TRM J78 ABQ J72 TURKI WESAT2


Current Weather Information
KRIV 260858Z AUTO 28003KT 10SM CLR 08/08 A3005 RMK AO2 SLP170 T00800080 56008
KAFW 260853Z 36006KT 10SM CLR 10/07 A3030 RMK AO2 SLP255 T01000067 50003